createdAt,value
2018-09-15T00:01:34.716Z,11.75
2018-09-15T00:04:04.266Z,12.18
2018-09-15T00:06:33.956Z,12.82
2018-09-15T00:09:03.837Z,12.45
2018-09-15T00:11:33.608Z,13.98
2018-09-15T00:14:03.292Z,11.70
2018-09-15T00:16:32.943Z,11.83
2018-09-15T00:19:02.931Z,10.82
2018-09-15T00:21:32.549Z,12.13
2018-09-15T00:24:01.990Z,12.85
2018-09-15T00:26:31.466Z,14.30
2018-09-15T00:29:00.891Z,14.00
2018-09-15T00:31:30.254Z,12.50
2018-09-15T00:33:59.750Z,12.28
2018-09-15T00:36:29.161Z,13.10
2018-09-15T00:38:58.528Z,13.15
2018-09-15T00:41:27.903Z,13.38
2018-09-15T00:43:57.422Z,12.60
2018-09-15T00:46:26.829Z,12.43
2018-09-15T00:48:56.367Z,12.55
2018-09-15T00:51:25.704Z,13.20
2018-09-15T00:53:55.064Z,11.85
2018-09-15T00:56:24.495Z,11.57
2018-09-15T00:58:53.919Z,11.60
2018-09-15T01:01:23.359Z,13.10
2018-09-15T01:03:52.759Z,11.50
2018-09-15T01:06:22.129Z,11.70
2018-09-15T01:08:51.502Z,12.28
2018-09-15T01:11:20.905Z,11.50
2018-09-15T01:13:50.361Z,11.95
2018-09-15T01:16:19.727Z,11.33
2018-09-15T01:18:49.278Z,11.25
2018-09-15T01:21:18.710Z,11.57
2018-09-15T01:23:48.155Z,10.93
2018-09-15T01:26:17.523Z,11.48
2018-09-15T01:28:50.278Z,10.85
2018-09-15T01:31:21.632Z,10.10
2018-09-15T01:33:51.348Z,10.20
2018-09-15T01:36:20.799Z,11.83
2018-09-15T01:38:50.264Z,11.35
2018-09-15T01:41:19.742Z,10.05
2018-09-15T01:43:49.483Z,10.40
2018-09-15T01:46:18.872Z,10.43
2018-09-15T01:48:48.399Z,11.15
2018-09-15T01:51:17.912Z,11.68
2018-09-15T01:53:47.364Z,10.18
2018-09-15T01:56:16.798Z,10.55
2018-09-15T01:58:46.216Z,10.90
2018-09-15T02:01:15.701Z,10.35
2018-09-15T02:03:45.175Z,10.03
2018-09-15T02:06:14.618Z,10.90
2018-09-15T02:08:45.128Z,10.40
2018-09-15T02:11:14.567Z,11.70
2018-09-15T02:13:43.957Z,9.98
2018-09-15T02:16:13.403Z,10.10
2018-09-15T02:18:42.865Z,9.98
2018-09-15T02:21:12.314Z,9.68
2018-09-15T02:23:41.766Z,10.05
2018-09-15T02:26:11.202Z,10.68
2018-09-15T02:28:40.695Z,10.20
2018-09-15T02:31:26.650Z,10.13
2018-09-15T02:33:56.068Z,10.05
2018-09-15T02:36:25.588Z,10.43
2018-09-15T02:38:54.986Z,9.90
2018-09-15T02:41:24.415Z,10.30
2018-09-15T02:43:53.791Z,10.43
2018-09-15T02:46:23.229Z,10.32
2018-09-15T02:48:52.653Z,9.30
2018-09-15T02:51:22.029Z,9.55
2018-09-15T02:53:51.481Z,10.65
2018-09-15T02:56:20.866Z,10.13
2018-09-15T02:58:50.265Z,10.55
2018-09-15T03:01:19.675Z,9.10
2018-09-15T03:03:49.142Z,10.13
2018-09-15T03:06:18.675Z,10.82
2018-09-15T03:08:59.011Z,10.03
2018-09-15T03:11:28.394Z,9.78
2018-09-15T03:13:57.799Z,10.70
2018-09-15T03:16:27.249Z,10.68
2018-09-15T03:18:56.724Z,10.63
2018-09-15T03:21:26.071Z,9.85
2018-09-15T03:23:55.459Z,11.35
2018-09-15T03:26:25.834Z,10.05
2018-09-15T03:28:55.274Z,11.30
2018-09-15T03:31:24.601Z,10.85
2018-09-15T03:33:54.127Z,10.78
2018-09-15T03:36:24.066Z,11.25
2018-09-15T03:38:53.551Z,10.68
2018-09-15T03:41:23.053Z,9.93
2018-09-15T03:43:52.361Z,10.28
2018-09-15T03:46:21.709Z,10.65
2018-09-15T03:48:51.078Z,10.60
2018-09-15T03:51:20.527Z,9.53
2018-09-15T03:53:49.992Z,10.13
2018-09-15T03:56:19.364Z,9.68
2018-09-15T03:58:48.859Z,10.82
2018-09-15T04:01:18.170Z,11.48
2018-09-15T04:03:47.587Z,12.33
2018-09-15T04:06:16.978Z,10.60
2018-09-15T04:08:46.349Z,11.75
2018-09-15T04:11:15.710Z,12.03
2018-09-15T04:13:45.076Z,10.85
2018-09-15T04:16:14.478Z,10.55
2018-09-15T04:18:43.820Z,12.55
2018-09-15T04:21:13.240Z,11.22
2018-09-15T04:23:42.646Z,12.18
2018-09-15T04:26:12.057Z,12.63
2018-09-15T04:28:41.470Z,12.00
2018-09-15T04:31:10.913Z,13.53
2018-09-15T04:33:40.362Z,11.30
2018-09-15T04:36:09.763Z,11.20
2018-09-15T04:38:39.284Z,12.43
2018-09-15T04:41:08.737Z,12.20
2018-09-15T04:43:38.114Z,10.93
2018-09-15T04:46:07.572Z,11.63
2018-09-15T04:48:36.994Z,10.72
2018-09-15T04:51:06.995Z,11.80
2018-09-15T04:53:36.442Z,12.78
2018-09-15T04:56:05.858Z,11.83
2018-09-15T04:58:35.397Z,12.37
2018-09-15T05:01:04.765Z,11.85
2018-09-15T05:03:34.324Z,11.25
2018-09-15T05:06:03.663Z,11.50
2018-09-15T05:08:33.246Z,12.28
2018-09-15T05:11:02.673Z,12.00
2018-09-15T05:13:32.213Z,10.40
2018-09-15T05:16:01.555Z,11.65
2018-09-15T05:18:31.041Z,11.15
2018-09-15T05:21:00.624Z,11.57
2018-09-15T05:23:30.207Z,11.53
2018-09-15T05:25:59.619Z,12.10
2018-09-15T05:28:29.150Z,11.33
2018-09-15T05:30:58.518Z,11.68
2018-09-15T05:33:28.003Z,10.85
2018-09-15T05:35:57.488Z,10.90
2018-09-15T05:38:27.076Z,10.20
2018-09-15T05:40:56.808Z,10.98
2018-09-15T05:43:26.263Z,11.90
2018-09-15T05:45:55.731Z,11.33
2018-09-15T05:48:25.219Z,11.35
2018-09-15T05:50:54.649Z,11.00
2018-09-15T05:53:24.072Z,11.00
2018-09-15T05:55:53.501Z,10.70
2018-09-15T05:58:22.888Z,10.13
2018-09-15T06:00:52.474Z,10.90
2018-09-15T06:03:21.833Z,9.68
2018-09-15T06:05:51.328Z,12.13
2018-09-15T06:08:20.731Z,11.10
2018-09-15T06:10:50.199Z,11.35
2018-09-15T06:13:19.662Z,11.10
2018-09-15T06:15:49.060Z,11.43
2018-09-15T06:18:18.435Z,11.22
2018-09-15T06:20:47.831Z,11.12
2018-09-15T06:23:17.314Z,10.95
2018-09-15T06:25:46.683Z,10.98
2018-09-15T06:28:16.138Z,10.65
2018-09-15T06:30:45.566Z,10.15
2018-09-15T06:33:14.976Z,9.95
2018-09-15T06:35:44.397Z,10.65
2018-09-15T06:38:13.895Z,10.40
2018-09-15T06:40:43.379Z,11.03
2018-09-15T06:43:12.774Z,11.05
2018-09-15T06:45:42.244Z,9.80
2018-09-15T06:48:11.592Z,9.90
2018-09-15T06:50:41.033Z,9.55
2018-09-15T06:53:10.499Z,10.18
2018-09-15T06:55:39.877Z,9.30
2018-09-15T06:58:09.398Z,9.28
2018-09-15T07:00:38.857Z,9.93
2018-09-15T07:03:08.196Z,10.03
2018-09-15T07:05:37.591Z,10.53
2018-09-15T07:08:07.028Z,10.85
2018-09-15T07:10:36.474Z,11.75
2018-09-15T07:13:06.356Z,11.43
2018-09-15T07:15:35.727Z,11.53
2018-09-15T07:18:05.275Z,10.98
2018-09-15T07:20:34.835Z,11.70
2018-09-15T07:23:04.575Z,11.20
2018-09-15T07:25:34.044Z,12.33
2018-09-15T07:28:03.447Z,12.00
2018-09-15T07:30:32.810Z,11.45
2018-09-15T07:33:02.284Z,13.30
2018-09-15T07:35:31.715Z,12.73
2018-09-15T07:38:01.130Z,11.50
2018-09-15T07:40:30.737Z,12.70
2018-09-15T07:43:00.691Z,12.88
2018-09-15T07:45:30.099Z,11.88
2018-09-15T07:47:59.543Z,13.45
2018-09-15T07:50:29.003Z,13.70
2018-09-15T07:52:58.446Z,11.38
2018-09-15T07:55:27.870Z,11.25
2018-09-15T07:57:57.362Z,11.25
2018-09-15T08:00:26.788Z,14.15
2018-09-15T08:02:56.260Z,12.98
2018-09-15T08:05:32.252Z,12.43
2018-09-15T08:08:01.614Z,13.15
2018-09-15T08:10:31.177Z,12.37
2018-09-15T08:13:00.595Z,13.95
2018-09-15T08:15:30.009Z,15.18
2018-09-15T08:17:59.398Z,12.70
2018-09-15T08:20:28.821Z,14.70
2018-09-15T08:22:58.303Z,14.18
2018-09-15T08:25:27.710Z,12.88
2018-09-15T08:27:57.159Z,14.15
2018-09-15T08:30:26.639Z,12.55
2018-09-15T08:32:59.783Z,12.00
2018-09-15T08:35:31.331Z,12.25
2018-09-15T08:38:08.906Z,12.85
2018-09-15T08:40:38.335Z,11.90
2018-09-15T08:43:09.640Z,12.55
2018-09-15T08:45:42.068Z,14.10
2018-09-15T08:48:11.532Z,12.37
2018-09-15T08:50:41.064Z,11.95
2018-09-15T08:53:11.283Z,11.50
2018-09-15T08:55:42.021Z,10.43
2018-09-15T08:58:13.783Z,11.55
2018-09-15T09:00:45.297Z,11.45
2018-09-15T09:03:14.933Z,11.43
2018-09-15T09:05:51.238Z,10.85
2018-09-15T09:08:20.742Z,11.63
2018-09-15T09:10:50.224Z,12.37
2018-09-15T09:13:37.272Z,11.80
2018-09-15T09:16:08.321Z,11.30
2018-09-15T09:18:51.097Z,11.10
2018-09-15T09:22:23.919Z,9.68
2018-09-15T09:24:56.216Z,10.85
2018-09-15T09:27:25.671Z,11.10
2018-09-15T09:29:55.125Z,9.85
2018-09-15T09:32:24.556Z,8.15
2018-09-15T09:34:53.888Z,8.73
2018-09-15T09:37:23.403Z,9.95
2018-09-15T09:39:52.813Z,8.70
2018-09-15T09:42:22.306Z,9.08
2018-09-15T09:44:51.813Z,11.30
2018-09-15T09:47:21.239Z,8.75
2018-09-15T09:49:50.775Z,9.25
2018-09-15T09:52:20.173Z,8.50
2018-09-15T09:54:49.529Z,7.72
2018-09-15T09:57:18.889Z,8.00
2018-09-15T09:59:48.358Z,6.95
2018-09-15T10:02:23.982Z,8.18
2018-09-15T10:04:53.799Z,7.28
2018-09-15T10:07:23.247Z,9.55
2018-09-15T10:09:52.721Z,8.88
2018-09-15T10:12:22.130Z,8.70
2018-09-15T10:14:51.573Z,10.40
2018-09-15T10:17:20.965Z,8.15
2018-09-15T10:19:50.403Z,9.20
2018-09-15T10:22:19.878Z,8.65
2018-09-15T10:24:49.371Z,8.25
2018-09-15T10:27:18.823Z,8.33
2018-09-15T10:29:48.232Z,9.08
2018-09-15T10:32:17.639Z,8.23
2018-09-15T10:34:47.066Z,9.08
2018-09-15T10:37:16.487Z,7.85
2018-09-15T10:39:46.041Z,9.78
2018-09-15T10:42:15.537Z,8.18
2018-09-15T10:44:45.046Z,8.65
2018-09-15T10:47:14.595Z,7.53
2018-09-15T10:49:44.059Z,7.12
2018-09-15T10:52:13.476Z,5.40
2018-09-15T10:54:42.862Z,6.22
2018-09-15T10:57:12.291Z,6.92
2018-09-15T10:59:41.735Z,6.70
2018-09-15T11:02:13.834Z,6.33
2018-09-15T11:04:45.161Z,8.65
2018-09-15T11:07:15.345Z,7.90
2018-09-15T11:09:44.805Z,6.95
2018-09-15T11:12:14.264Z,9.03
2018-09-15T11:14:43.876Z,6.92
2018-09-15T11:17:13.303Z,7.60
2018-09-15T11:19:42.667Z,7.62
2018-09-15T11:22:12.081Z,6.65
2018-09-15T11:24:41.449Z,7.78
2018-09-15T11:27:10.975Z,6.78
2018-09-15T11:29:40.365Z,6.22
2018-09-15T11:32:09.759Z,6.58
2018-09-15T11:34:39.137Z,6.12
2018-09-15T11:37:08.625Z,5.47
2018-09-15T11:39:38.057Z,5.78
2018-09-15T11:42:07.443Z,5.58
2018-09-15T11:44:36.876Z,4.62
2018-09-15T11:47:07.368Z,5.70
2018-09-15T11:49:36.816Z,5.40
2018-09-15T11:52:06.295Z,5.45
2018-09-15T11:54:35.728Z,5.50
2018-09-15T11:57:05.208Z,4.17
2018-09-15T11:59:35.191Z,4.75
2018-09-15T12:02:04.802Z,5.05
2018-09-15T12:04:34.242Z,5.92
2018-09-15T12:07:03.809Z,4.35
2018-09-15T12:09:33.278Z,4.25
2018-09-15T12:12:02.719Z,4.55
2018-09-15T12:14:32.224Z,4.85
2018-09-15T12:17:01.695Z,4.33
2018-09-15T12:19:31.950Z,4.58
2018-09-15T12:22:01.330Z,3.85
2018-09-15T12:24:30.796Z,4.15
2018-09-15T12:27:00.238Z,4.10
2018-09-15T12:29:29.738Z,4.60
2018-09-15T12:31:59.114Z,4.15
2018-09-15T12:34:28.823Z,3.70
2018-09-15T12:36:58.976Z,3.70
2018-09-15T12:39:29.042Z,3.67
2018-09-15T12:41:58.808Z,3.45
2018-09-15T12:44:28.810Z,3.80
2018-09-15T12:46:58.197Z,4.78
2018-09-15T12:49:27.589Z,5.00
2018-09-15T12:52:00.396Z,4.47
2018-09-15T12:54:29.915Z,4.35
2018-09-15T12:56:59.407Z,4.10
2018-09-15T12:59:28.986Z,4.10
2018-09-15T13:01:58.457Z,4.53
2018-09-15T13:04:27.854Z,4.05
2018-09-15T13:06:57.881Z,4.25
2018-09-15T13:09:27.386Z,4.40
2018-09-15T13:11:56.882Z,4.17
2018-09-15T13:14:26.373Z,3.80
2018-09-15T13:16:55.841Z,4.30
2018-09-15T13:19:25.474Z,3.62
2018-09-15T13:21:55.089Z,3.90
2018-09-15T13:24:24.679Z,3.67
2018-09-15T13:26:54.126Z,3.72
2018-09-15T13:29:23.575Z,3.70
2018-09-15T13:31:53.130Z,3.67
2018-09-15T13:34:22.536Z,3.22
2018-09-15T13:36:52.050Z,3.50
2018-09-15T13:39:21.465Z,2.83
2018-09-15T13:41:50.914Z,3.10
2018-09-15T13:44:20.388Z,3.27
2018-09-15T13:46:49.953Z,3.12
2018-09-15T13:49:19.246Z,3.62
2018-09-15T13:51:48.651Z,3.05
2018-09-15T13:54:19.042Z,3.20
2018-09-15T13:56:48.701Z,2.77
2018-09-15T13:59:18.135Z,3.15
2018-09-15T14:01:47.560Z,3.20
2018-09-15T14:04:17.090Z,3.45
2018-09-15T14:06:46.772Z,2.67
2018-09-15T14:09:16.775Z,3.67
2018-09-15T14:11:46.523Z,3.30
2018-09-15T14:14:15.949Z,4.22
2018-09-15T14:16:45.623Z,4.00
2018-09-15T14:19:15.027Z,2.83
2018-09-15T14:21:44.648Z,3.45
2018-09-15T14:24:14.242Z,3.20
2018-09-15T14:26:43.731Z,3.00
2018-09-15T14:29:14.405Z,3.50
2018-09-15T14:31:43.937Z,3.75
2018-09-15T14:34:13.451Z,3.40
2018-09-15T14:36:43.122Z,3.35
2018-09-15T14:39:12.953Z,3.42
2018-09-15T14:41:42.344Z,3.35
2018-09-15T14:44:11.856Z,2.90
2018-09-15T14:46:41.285Z,3.17
2018-09-15T14:49:10.874Z,3.80
2018-09-15T14:51:40.399Z,3.58
2018-09-15T14:54:09.855Z,4.00
2018-09-15T14:56:39.271Z,3.15
2018-09-15T14:59:08.796Z,3.08
2018-09-15T15:01:38.351Z,3.15
2018-09-15T15:04:08.016Z,2.75
2018-09-15T15:06:37.505Z,3.37
2018-09-15T15:09:08.613Z,3.45
2018-09-15T15:11:37.978Z,3.33
2018-09-15T15:14:08.033Z,3.55
2018-09-15T15:16:37.453Z,3.75
2018-09-15T15:19:07.940Z,4.08
2018-09-15T15:21:37.416Z,3.77
2018-09-15T15:24:06.952Z,3.95
2018-09-15T15:26:36.399Z,3.72
2018-09-15T15:29:05.893Z,3.65
2018-09-15T15:31:35.286Z,3.00
2018-09-15T15:34:04.704Z,2.95
2018-09-15T15:36:35.123Z,3.55
2018-09-15T15:39:05.259Z,3.35
2018-09-15T15:41:34.712Z,4.05
2018-09-15T15:44:04.246Z,3.40
2018-09-15T15:46:33.774Z,3.92
2018-09-15T15:49:03.923Z,3.85
2018-09-15T15:51:33.563Z,3.42
2018-09-15T15:54:03.283Z,4.08
2018-09-15T15:56:32.830Z,3.22
2018-09-15T15:59:02.419Z,3.47
2018-09-15T16:01:31.919Z,3.30
2018-09-15T16:04:01.342Z,3.35
2018-09-15T16:06:30.906Z,3.80
2018-09-15T16:09:00.335Z,4.37
2018-09-15T16:11:29.769Z,3.60
2018-09-15T16:13:59.216Z,4.03
2018-09-15T16:16:28.628Z,3.60
2018-09-15T16:18:58.125Z,4.70
2018-09-15T16:21:27.522Z,4.33
2018-09-15T16:23:56.983Z,4.53
2018-09-15T16:26:26.375Z,3.60
2018-09-15T16:28:55.811Z,4.08
2018-09-15T16:31:25.313Z,4.15
2018-09-15T16:33:54.725Z,4.05
2018-09-15T16:36:24.124Z,3.60
2018-09-15T16:38:53.566Z,4.05
2018-09-15T16:41:22.898Z,4.80
2018-09-15T16:43:52.317Z,3.95
2018-09-15T16:46:21.817Z,4.10
2018-09-15T16:48:51.257Z,4.30
2018-09-15T16:51:20.661Z,3.67
2018-09-15T16:53:50.032Z,3.92
2018-09-15T16:56:19.531Z,3.67
2018-09-15T16:58:49.290Z,4.50
2018-09-15T17:01:18.726Z,4.20
2018-09-15T17:03:48.108Z,4.20
2018-09-15T17:06:17.647Z,4.60
2018-09-15T17:08:47.151Z,3.85
2018-09-15T17:11:16.557Z,3.77
2018-09-15T17:13:46.046Z,3.90
2018-09-15T17:16:15.479Z,4.30
2018-09-15T17:18:44.922Z,4.40
2018-09-15T17:21:14.323Z,4.20
2018-09-15T17:23:43.859Z,4.45
2018-09-15T17:26:13.283Z,4.75
2018-09-15T17:28:42.725Z,3.92
2018-09-15T17:31:12.524Z,4.03
2018-09-15T17:33:42.004Z,4.00
2018-09-15T17:36:11.384Z,4.70
2018-09-15T17:38:41.613Z,4.05
2018-09-15T17:41:11.180Z,3.92
2018-09-15T17:43:40.671Z,3.87
2018-09-15T17:46:10.206Z,4.62
2018-09-15T17:48:39.824Z,5.33
2018-09-15T17:51:09.343Z,4.50
2018-09-15T17:53:38.774Z,5.10
2018-09-15T17:56:08.461Z,4.25
2018-09-15T17:58:38.097Z,4.60
2018-09-15T18:01:08.309Z,4.95
2018-09-15T18:03:38.058Z,4.90
2018-09-15T18:06:07.696Z,4.30
2018-09-15T18:08:37.229Z,3.60
2018-09-15T18:11:07.523Z,4.50
2018-09-15T18:13:37.032Z,5.60
2018-09-15T18:16:06.757Z,7.97
2018-09-15T18:18:36.177Z,8.28
2018-09-15T18:21:05.726Z,6.80
2018-09-15T18:23:35.708Z,6.30
2018-09-15T18:26:05.300Z,6.05
2018-09-15T18:28:34.726Z,6.17
2018-09-15T18:31:04.055Z,5.20
2018-09-15T18:33:33.484Z,5.75
2018-09-15T18:36:03.084Z,5.72
2018-09-15T18:38:32.517Z,5.90
2018-09-15T18:41:02.346Z,5.90
2018-09-15T18:43:31.771Z,5.80
2018-09-15T18:46:01.196Z,4.90
2018-09-15T18:48:30.576Z,5.03
2018-09-15T18:51:00.171Z,5.67
2018-09-15T18:53:29.709Z,5.78
2018-09-15T18:55:59.225Z,5.65
2018-09-15T18:58:29.812Z,6.40
2018-09-15T19:00:59.429Z,7.22
2018-09-15T19:03:29.052Z,6.12
2018-09-15T19:05:58.528Z,5.60
2018-09-15T19:08:27.992Z,4.95
2018-09-15T19:10:57.431Z,4.87
2018-09-15T19:13:26.847Z,5.22
2018-09-15T19:15:56.228Z,6.05
2018-09-15T19:18:25.607Z,7.47
2018-09-15T19:20:55.068Z,6.97
2018-09-15T19:23:24.625Z,5.20
2018-09-15T19:25:54.107Z,5.92
2018-09-15T19:28:23.601Z,5.92
2018-09-15T19:30:53.143Z,5.90
2018-09-15T19:33:22.547Z,5.40
2018-09-15T19:35:52.138Z,6.50
2018-09-15T19:38:21.553Z,5.85
2018-09-15T19:40:51.004Z,6.83
2018-09-15T19:43:20.521Z,5.95
2018-09-15T19:45:49.985Z,6.10
2018-09-15T19:48:19.390Z,6.05
2018-09-15T19:50:48.785Z,5.62
2018-09-15T19:53:18.189Z,5.80
2018-09-15T19:55:47.619Z,5.50
2018-09-15T19:58:17.039Z,6.20
2018-09-15T20:00:46.470Z,6.40
2018-09-15T20:03:15.903Z,6.90
2018-09-15T20:05:45.316Z,6.95
2018-09-15T20:08:14.831Z,7.35
2018-09-15T20:10:44.260Z,7.28
2018-09-15T20:13:13.701Z,8.40
2018-09-15T20:15:41.419Z,8.78
2018-09-15T20:18:09.183Z,8.13
2018-09-15T20:20:36.950Z,7.62
2018-09-15T20:23:06.651Z,7.83
2018-09-15T20:25:36.090Z,7.25
2018-09-15T20:28:05.665Z,8.90
2018-09-15T20:30:35.277Z,9.08
2018-09-15T20:33:04.915Z,7.75
2018-09-15T20:35:34.242Z,8.65
2018-09-15T20:38:04.718Z,8.80
2018-09-15T20:40:34.316Z,9.20
2018-09-15T20:43:04.812Z,10.15
2018-09-15T20:45:34.297Z,9.50
2018-09-15T20:48:03.694Z,9.63
2018-09-15T20:50:33.118Z,9.45
2018-09-15T20:53:02.522Z,8.90
2018-09-15T20:55:31.920Z,9.23
2018-09-15T20:58:01.347Z,10.23
2018-09-15T21:00:30.853Z,9.98
2018-09-15T21:03:00.366Z,9.40
2018-09-15T21:05:29.765Z,10.50
2018-09-15T21:07:59.307Z,9.58
2018-09-15T21:10:28.716Z,9.45
2018-09-15T21:12:58.123Z,9.58
2018-09-15T21:15:27.572Z,10.68
2018-09-15T21:17:56.991Z,11.00
2018-09-15T21:20:26.405Z,10.75
2018-09-15T21:22:55.787Z,11.28
2018-09-15T21:25:25.220Z,11.22
2018-09-15T21:27:54.593Z,9.95
2018-09-15T21:30:24.459Z,11.22
2018-09-15T21:32:53.987Z,11.80
2018-09-15T21:35:23.442Z,12.47
2018-09-15T21:37:52.963Z,12.40
2018-09-15T21:40:22.485Z,11.18
2018-09-15T21:42:51.913Z,13.43
2018-09-15T21:45:21.402Z,11.65
2018-09-15T21:47:50.797Z,12.85
2018-09-15T21:50:20.156Z,12.33
2018-09-15T21:52:50.217Z,12.40
2018-09-15T21:55:19.679Z,12.53
2018-09-15T21:57:49.067Z,11.38
2018-09-15T22:00:18.515Z,11.65
2018-09-15T22:02:47.977Z,10.40
2018-09-15T22:05:17.422Z,11.20
2018-09-15T22:07:46.852Z,10.70
2018-09-15T22:10:16.484Z,10.30
2018-09-15T22:12:45.938Z,11.05
2018-09-15T22:15:20.680Z,9.83
2018-09-15T22:17:50.124Z,10.40
2018-09-15T22:20:19.717Z,10.45
2018-09-15T22:22:49.186Z,10.75
2018-09-15T22:25:18.668Z,10.43
2018-09-15T22:27:48.543Z,11.05
2018-09-15T22:30:18.032Z,12.15
2018-09-15T22:32:47.385Z,11.45
2018-09-15T22:35:16.767Z,12.58
2018-09-15T22:37:46.240Z,11.15
2018-09-15T22:40:15.695Z,10.38
2018-09-15T22:42:45.113Z,11.55
2018-09-15T22:45:14.512Z,10.88
2018-09-15T22:47:43.900Z,11.88
2018-09-15T22:50:13.364Z,12.58
2018-09-15T22:52:42.705Z,11.97
2018-09-15T22:55:12.163Z,11.73
2018-09-15T22:57:41.568Z,12.58
2018-09-15T23:00:11.123Z,11.95
2018-09-15T23:02:40.590Z,12.65
2018-09-15T23:05:10.089Z,12.85
2018-09-15T23:07:39.471Z,12.03
2018-09-15T23:10:09.015Z,13.75
2018-09-15T23:12:38.366Z,13.70
2018-09-15T23:15:07.752Z,12.95
2018-09-15T23:17:37.152Z,12.40
2018-09-15T23:20:06.639Z,12.40
2018-09-15T23:22:36.057Z,13.60
2018-09-15T23:25:05.580Z,11.40
2018-09-15T23:27:34.900Z,11.90
2018-09-15T23:30:04.286Z,12.28
2018-09-15T23:32:33.747Z,12.75
2018-09-15T23:35:03.207Z,13.20
2018-09-15T23:37:32.618Z,12.90
2018-09-15T23:40:02.079Z,12.93
2018-09-15T23:42:31.500Z,12.23
2018-09-15T23:45:00.904Z,12.82
2018-09-15T23:47:30.292Z,12.23
2018-09-15T23:49:59.767Z,11.48
2018-09-15T23:52:29.135Z,11.85
2018-09-15T23:54:58.713Z,11.53
2018-09-15T23:57:28.191Z,11.68
2018-09-15T23:59:57.585Z,11.97
